Time;durP1;ratioP1;P1;durP2;ratioP2;P2;SDS_P1;SDS_P2;PMS_P1;PMS_P2;Temp;Humidity;BMP_temperature;BMP_pressure;BME280_temperature;BME280_humidity;BME280_pressure;Samples;Min_cycle;Max_cycle;Signal;HPM_P1;HPM_P2
2021/11/06 00:01:07;;;;;;;44.83;32.10;;;;;;;11.51;100.00;101658.62;1708609;83;21504;-85
2021/11/06 00:03:34;;;;;;;41.20;32.08;;;;;;;11.40;100.00;101662.35;1708293;84;21069;-85
2021/11/06 00:06:01;;;;;;;45.40;32.35;;;;;;;11.37;100.00;101670.39;1685569;85;21115;-85
2021/11/06 00:08:28;;;;;;;43.28;32.40;;;;;;;11.37;100.00;101663.87;1708389;84;21050;-85
2021/11/06 00:10:56;;;;;;;44.00;33.25;;;;;;;11.36;100.00;101662.19;1685819;83;21151;-85
2021/11/06 00:13:25;;;;;;;45.63;32.35;;;;;;;11.33;100.00;101657.15;1707945;84;21049;-85
2021/11/06 00:15:54;;;;;;;42.85;31.97;;;;;;;11.29;100.00;101652.59;1685754;84;21076;-85
2021/11/06 00:18:21;;;;;;;44.55;32.13;;;;;;;11.28;100.00;101650.91;1708411;84;20983;-84
2021/11/06 00:20:49;;;;;;;42.27;30.57;;;;;;;11.22;100.00;101643.48;1686346;83;21581;-84
2021/11/06 00:23:17;;;;;;;44.42;32.40;;;;;;;11.17;100.00;101636.41;1708132;84;22281;-85
2021/11/06 00:25:44;;;;;;;46.92;33.78;;;;;;;11.15;100.00;101639.58;1686511;83;21054;-85
2021/11/06 00:28:11;;;;;;;46.95;34.38;;;;;;;11.09;100.00;101640.78;1682731;84;21661;-85
2021/11/06 00:30:38;;;;;;;44.55;34.35;;;;;;;11.02;100.00;101646.00;1686303;85;21102;-86
2021/11/06 00:33:06;;;;;;;45.15;33.20;;;;;;;10.98;100.00;101644.48;1708224;84;21665;-85
2021/11/06 00:35:33;;;;;;;50.10;35.45;;;;;;;10.93;100.00;101633.07;1686257;83;21161;-85
2021/11/06 00:38:00;;;;;;;48.20;35.35;;;;;;;10.89;100.00;101638.08;1705441;84;21039;-85
2021/11/06 00:40:28;;;;;;;47.73;34.27;;;;;;;10.85;100.00;101640.51;1676915;85;21079;-85
2021/11/06 00:42:55;;;;;;;50.00;36.77;;;;;;;10.84;100.00;101640.13;1693925;83;21525;-85
2021/11/06 00:45:22;;;;;;;41.68;33.28;;;;;;;10.80;100.00;101636.02;1696059;83;21024;-85
2021/11/06 00:47:50;;;;;;;44.33;34.45;;;;;;;10.77;100.00;101638.83;1696016;83;21889;-85
2021/11/06 00:50:18;;;;;;;42.70;33.80;;;;;;;10.72;100.00;101642.53;1695774;83;20972;-85
2021/11/06 00:52:47;;;;;;;47.95;33.70;;;;;;;10.69;100.00;101637.52;1696315;84;21090;-85
2021/11/06 00:55:17;;;;;;;50.45;35.28;;;;;;;10.69;100.00;101637.52;1696092;83;21031;-86
2021/11/06 00:57:44;;;;;;;51.37;36.30;;;;;;;10.73;100.00;101644.20;1696235;83;21062;-85
2021/11/06 01:00:15;;;;;;;50.35;34.78;;;;;;;10.78;100.00;101641.33;1696017;83;21103;-85
2021/11/06 01:02:42;;;;;;;56.13;37.58;;;;;;;10.80;100.00;101638.62;1696453;83;21122;-85
2021/11/06 01:05:13;;;;;;;51.68;34.10;;;;;;;10.81;100.00;101639.86;1695892;83;21608;-85
2021/11/06 01:07:41;;;;;;;52.13;35.43;;;;;;;10.81;100.00;101639.86;1696267;83;21067;-85
2021/11/06 01:10:12;;;;;;;47.10;35.43;;;;;;;10.83;100.00;101638.45;1695995;83;21631;-85
2021/11/06 01:12:41;;;;;;;54.65;36.98;;;;;;;10.85;100.00;101637.91;1696081;83;21166;-85
2021/11/06 01:15:12;;;;;;;49.25;36.83;;;;;;;10.86;100.00;101635.64;1695595;83;21039;-85
2021/11/06 01:17:42;;;;;;;47.58;36.35;;;;;;;10.86;100.00;101640.41;1696072;83;21388;-86
2021/11/06 01:20:10;;;;;;;47.53;35.20;;;;;;;10.85;100.00;101636.60;1696118;83;21567;-85
2021/11/06 01:22:39;;;;;;;47.43;35.17;;;;;;;10.85;100.00;101632.21;1696203;83;21082;-85
2021/11/06 01:25:09;;;;;;;46.00;32.75;;;;;;;10.85;100.00;101631.39;1695669;84;21069;-85
2021/11/06 01:27:37;;;;;;;48.35;36.17;;;;;;;10.84;100.00;101624.50;1695903;84;21010;-85
2021/11/06 01:30:08;;;;;;;56.02;36.38;;;;;;;10.83;100.00;101634.06;1695824;84;22248;-85
2021/11/06 01:32:37;;;;;;;51.70;36.38;;;;;;;10.85;100.00;101641.81;1696171;84;21073;-85
2021/11/06 01:35:07;;;;;;;53.23;36.75;;;;;;;10.91;100.00;101643.19;1695630;84;21875;-85
2021/11/06 01:37:34;;;;;;;47.05;35.90;;;;;;;10.94;100.00;101638.62;1664835;84;21166;-85
2021/11/06 01:40:04;;;;;;;54.93;40.73;;;;;;;10.95;100.00;101636.39;1722778;81;21042;-85
2021/11/06 01:42:31;;;;;;;54.30;38.17;;;;;;;10.93;100.00;101638.28;1731046;82;21028;-85
2021/11/06 01:44:59;;;;;;;54.98;38.55;;;;;;;10.91;100.00;101641.44;1730935;82;20975;-85
2021/11/06 01:47:26;;;;;;;60.75;41.25;;;;;;;10.94;100.00;101643.02;1731252;82;21065;-85
2021/11/06 01:49:54;;;;;;;58.90;41.40;;;;;;;10.93;100.00;101634.38;1730896;82;21994;-85
2021/11/06 01:52:22;;;;;;;55.45;40.17;;;;;;;10.95;100.00;101632.97;1730902;82;20995;-85
2021/11/06 01:54:49;;;;;;;60.63;40.35;;;;;;;10.94;100.00;101627.38;1731384;82;21528;-85
2021/11/06 01:57:17;;;;;;;65.78;41.45;;;;;;;10.93;100.00;101631.77;1730660;82;21572;-85
2021/11/06 01:59:45;;;;;;;64.50;43.55;;;;;;;10.92;100.00;101632.69;1731334;82;21034;-85
2021/11/06 02:02:13;;;;;;;63.48;41.73;;;;;;;10.91;100.00;101627.10;1731093;82;21821;-85
2021/11/06 02:04:40;;;;;;;65.08;43.35;;;;;;;10.91;100.00;101623.64;1726702;82;21039;-84
2021/11/06 02:07:08;;;;;;;60.35;41.83;;;;;;;10.91;100.00;101623.64;1730984;82;21074;-85
2021/11/06 02:09:35;;;;;;;60.83;42.27;;;;;;;10.91;100.00;101629.70;1731219;82;21516;-85
2021/11/06 02:12:03;;;;;;;60.67;42.50;;;;;;;10.91;100.00;101623.20;1702080;82;21042;-85
2021/11/06 02:14:31;;;;;;;65.35;44.20;;;;;;;10.92;100.00;101617.06;1731555;82;21144;-85
2021/11/06 02:16:58;;;;;;;64.00;44.20;;;;;;;10.93;100.00;101614.83;1702038;82;22458;-85
2021/11/06 02:19:28;;;;;;;61.68;44.83;;;;;;;10.91;100.00;101616.69;1731407;82;21006;-85
2021/11/06 02:21:58;;;;;;;67.37;46.55;;;;;;;10.91;100.00;101615.38;1731185;82;21098;-85
2021/11/06 02:24:27;;;;;;;69.07;45.57;;;;;;;10.91;100.00;101612.77;1702471;82;21333;-85
2021/11/06 02:26:56;;;;;;;63.87;44.10;;;;;;;10.88;100.00;101608.59;1731158;82;21891;-85
2021/11/06 02:29:23;;;;;;;67.20;46.08;;;;;;;10.88;100.00;101617.71;1731049;82;21488;-85
2021/11/06 02:31:50;;;;;;;62.60;45.70;;;;;;;10.89;100.00;101613.32;1731023;82;21031;-85
2021/11/06 02:34:17;;;;;;;67.25;44.77;;;;;;;10.89;100.00;101608.97;1731158;82;21066;-85
2021/11/06 02:36:46;;;;;;;65.47;44.33;;;;;;;10.90;100.00;101611.09;1731275;82;20959;-85
2021/11/06 02:39:15;;;;;;;73.57;46.50;;;;;;;10.87;100.00;101611.27;1733413;82;21721;-85
2021/11/06 02:41:43;;;;;;;65.92;46.33;;;;;;;10.88;100.00;101599.47;1701624;82;21046;-85
2021/11/06 02:44:13;;;;;;;75.05;44.70;;;;;;;10.89;100.00;101597.69;1738902;81;21089;-85
2021/11/06 02:46:41;;;;;;;64.67;43.05;;;;;;;10.88;100.00;101594.70;1738708;81;21007;-84
2021/11/06 02:49:09;;;;;;;65.80;43.17;;;;;;;10.89;100.00;101589.87;1738923;82;21590;-85
2021/11/06 02:51:36;;;;;;;64.45;43.83;;;;;;;10.93;100.00;101595.28;1738561;81;21146;-85
2021/11/06 02:54:04;;;;;;;64.53;43.55;;;;;;;10.94;100.00;101593.50;1738965;81;21015;-85
2021/11/06 02:56:31;;;;;;;68.60;46.00;;;;;;;10.97;100.00;101598.05;1738834;82;21030;-85
2021/11/06 02:58:59;;;;;;;59.85;41.88;;;;;;;11.00;100.00;101586.16;1738802;82;21043;-85
2021/11/06 03:01:28;;;;;;;64.90;44.60;;;;;;;11.00;100.00;101580.94;1738681;82;21093;-85
2021/11/06 03:03:55;;;;;;;67.10;44.38;;;;;;;11.02;100.00;101580.36;1707119;82;22051;-85
2021/11/06 03:06:23;;;;;;;68.40;44.90;;;;;;;11.05;100.00;101585.87;1731933;82;21678;-85
2021/11/06 03:08:50;;;;;;;70.80;45.98;;;;;;;11.08;100.00;101578.33;1722217;83;21056;-85
2021/11/06 03:11:17;;;;;;;67.17;44.90;;;;;;;11.07;100.00;101577.47;1699406;82;21809;-85
2021/11/06 03:13:46;;;;;;;70.83;45.28;;;;;;;11.07;100.00;101575.34;1726813;83;21132;-85
2021/11/06 03:16:14;;;;;;;65.85;45.25;;;;;;;11.04;100.00;101573.29;1726770;83;21935;-85
2021/11/06 03:18:42;;;;;;;68.60;46.73;;;;;;;11.05;100.00;101574.14;1725937;82;21085;-85
2021/11/06 03:21:09;;;;;;;69.72;47.40;;;;;;;11.04;100.00;101573.29;1726684;83;21511;-86
2021/11/06 03:23:36;;;;;;;71.00;47.27;;;;;;;10.99;100.00;101570.14;1729466;82;21073;-85
2021/11/06 03:26:05;;;;;;;70.72;45.40;;;;;;;10.95;100.00;101569.95;1721738;82;21014;-85
2021/11/06 03:28:33;;;;;;;72.70;45.85;;;;;;;10.94;100.00;101568.27;1734419;81;21949;-85
2021/11/06 03:31:00;;;;;;;71.95;46.90;;;;;;;10.94;100.00;101570.88;1708185;84;21122;-86
2021/11/06 03:33:27;;;;;;;75.45;46.68;;;;;;;10.97;100.00;101571.17;1728972;82;21015;-85
2021/11/06 03:35:55;;;;;;;76.05;47.93;;;;;;;10.95;100.00;101566.03;1737226;81;21023;-85
2021/11/06 03:38:24;;;;;;;73.72;46.48;;;;;;;10.93;100.00;101570.53;1737217;82;21041;-86
2021/11/06 03:40:53;;;;;;;79.80;49.27;;;;;;;10.92;100.00;101564.94;1692296;82;21111;-85
2021/11/06 03:43:20;;;;;;;75.15;47.70;;;;;;;10.89;100.00;101566.42;1736611;82;21035;-86
2021/11/06 03:45:47;;;;;;;78.33;48.87;;;;;;;10.88;100.00;101572.56;1736943;82;21082;-86
2021/11/06 03:48:14;;;;;;;75.72;46.02;;;;;;;10.88;100.00;101572.56;1736744;82;21582;-85
2021/11/06 03:50:41;;;;;;;75.35;45.67;;;;;;;10.87;100.00;101582.16;1736788;82;21686;-85
2021/11/06 03:53:08;;;;;;;80.07;48.20;;;;;;;10.89;100.00;101579.45;1742507;81;21829;-85
2021/11/06 03:55:35;;;;;;;74.75;46.55;;;;;;;10.90;100.00;101585.03;1726449;83;21092;-85
2021/11/06 03:58:03;;;;;;;74.07;44.48;;;;;;;10.91;100.00;101591.92;1716292;82;21069;-85
2021/11/06 04:00:31;;;;;;;79.72;48.20;;;;;;;10.93;100.00;101595.28;1726524;83;21010;-86
2021/11/06 04:02:58;;;;;;;75.35;47.27;;;;;;;10.97;100.00;101594.62;1742792;81;21014;-85
2021/11/06 04:05:25;;;;;;;83.03;48.08;;;;;;;10.95;100.00;101597.30;1726442;83;21124;-85
2021/11/06 04:07:52;;;;;;;74.65;45.23;;;;;;;10.93;100.00;101601.80;1742662;81;21427;-85
2021/11/06 04:10:19;;;;;;;70.12;45.83;;;;;;;10.93;100.00;101599.19;1726628;83;21549;-85
2021/11/06 04:12:46;;;;;;;78.47;46.98;;;;;;;10.97;100.00;101588.94;1716712;82;20967;-86
2021/11/06 04:15:15;;;;;;;77.90;47.67;;;;;;;10.99;100.00;101588.83;1726743;83;21553;-86
2021/11/06 04:17:42;;;;;;;85.25;47.00;;;;;;;10.99;100.00;101587.53;1743156;82;21118;-86
2021/11/06 04:20:10;;;;;;;77.55;45.92;;;;;;;10.96;100.00;101567.71;1726502;83;21017;-85
2021/11/06 04:22:38;;;;;;;78.60;48.42;;;;;;;10.97;100.00;101560.27;1746786;82;21077;-85
2021/11/06 04:25:09;;;;;;;77.47;46.37;;;;;;;10.94;100.00;101568.27;1735244;82;21096;-85
2021/11/06 04:27:36;;;;;;;73.40;45.98;;;;;;;10.88;100.00;101574.72;1788301;80;21004;-83
2021/11/06 04:30:05;;;;;;;82.37;45.65;;;;;;;10.84;100.00;101578.42;1785047;80;21126;-81
2021/11/06 04:32:33;;;;;;;81.70;46.58;;;;;;;10.83;100.00;101584.56;1784554;80;21013;-86
2021/11/06 04:35:00;;;;;;;91.42;47.10;;;;;;;10.86;100.00;101586.14;1749137;80;20985;-82
2021/11/06 04:37:28;;;;;;;80.50;46.37;;;;;;;10.89;100.00;101578.14;1768132;80;21609;-81
2021/11/06 04:39:58;;;;;;;78.33;45.25;;;;;;;10.92;100.00;101583.63;1779989;80;20995;-82
2021/11/06 04:42:27;;;;;;;79.62;45.58;;;;;;;10.91;100.00;101584.11;1767839;80;21186;-82
2021/11/06 04:44:54;;;;;;;82.62;44.98;;;;;;;10.86;100.00;101588.74;1768013;80;21077;-81
2021/11/06 04:47:22;;;;;;;74.25;44.45;;;;;;;10.83;100.00;101591.55;1762371;80;21506;-82
2021/11/06 04:49:49;;;;;;;83.55;44.73;;;;;;;10.82;100.00;101588.57;1714448;81;21041;-81
2021/11/06 04:52:17;;;;;;;77.55;45.10;;;;;;;10.82;100.00;101597.69;1736272;81;21136;-81
2021/11/06 04:54:44;;;;;;;88.82;42.90;;;;;;;10.82;100.00;101600.30;1736301;81;21803;-82
2021/11/06 04:57:11;;;;;;;79.62;45.65;;;;;;;10.86;100.00;101609.59;1743511;80;21559;-81
2021/11/06 04:59:38;;;;;;;81.87;46.35;;;;;;;10.94;100.00;101606.53;1747729;80;21029;-81
2021/11/06 05:02:06;;;;;;;77.35;46.60;;;;;;;10.96;100.00;101606.80;1747042;82;21053;-81
2021/11/06 05:04:34;;;;;;;80.75;45.75;;;;;;;10.96;100.00;101608.11;1747195;81;21142;-82
2021/11/06 05:07:01;;;;;;;71.12;43.13;;;;;;;11.02;100.00;101609.50;1746976;82;21794;-81
2021/11/06 05:09:29;;;;;;;73.57;43.25;;;;;;;11.03;100.00;101600.77;1746873;82;21009;-80
2021/11/06 05:11:57;;;;;;;74.30;43.38;;;;;;;11.07;100.00;101608.75;1746916;81;20966;-82
2021/11/06 05:14:25;;;;;;;72.58;43.60;;;;;;;11.08;100.00;101609.13;1747323;82;20998;-81
2021/11/06 05:16:52;;;;;;;75.87;42.75;;;;;;;11.12;100.00;101613.23;1746982;82;21614;-81
2021/11/06 05:19:19;;;;;;;79.53;41.20;;;;;;;11.16;100.00;101621.70;1747100;81;21156;-80
2021/11/06 05:21:46;;;;;;;74.00;43.00;;;;;;;11.20;100.00;101621.87;1721490;82;21042;-81
2021/11/06 05:24:14;;;;;;;74.35;43.40;;;;;;;11.26;100.00;101628.00;1746980;81;21033;-81
2021/11/06 05:26:42;;;;;;;75.50;42.95;;;;;;;11.33;100.00;101627.16;1747972;80;21555;-82
2021/11/06 05:29:10;;;;;;;77.82;43.40;;;;;;;11.40;100.00;101617.20;1720957;82;21045;-81
2021/11/06 05:31:39;;;;;;;75.12;42.65;;;;;;;11.42;100.00;101617.47;1747964;80;21873;-80
2021/11/06 05:34:07;;;;;;;79.35;44.73;;;;;;;11.46;100.00;101629.84;1768608;80;21053;-83
2021/11/06 05:36:34;;;;;;;77.10;45.08;;;;;;;11.51;100.00;101624.72;1768480;80;21081;-82
2021/11/06 05:39:03;;;;;;;84.40;46.53;;;;;;;11.50;100.00;101620.42;1768462;80;21076;-83
2021/11/06 05:41:30;;;;;;;77.92;44.75;;;;;;;11.53;100.00;101623.30;1775161;80;20982;-81
2021/11/06 05:43:57;;;;;;;73.50;43.35;;;;;;;11.57;100.00;101630.47;1777024;79;21181;-82
2021/11/06 05:46:24;;;;;;;78.67;44.23;;;;;;;11.60;100.00;101631.59;1776983;80;21077;-81
2021/11/06 05:48:51;;;;;;;81.87;45.98;;;;;;;11.63;100.00;101620.49;1777029;80;21029;-82
2021/11/06 05:51:19;;;;;;;78.02;44.63;;;;;;;11.64;100.00;101631.75;1776970;80;21523;-81
2021/11/06 05:53:46;;;;;;;83.17;45.12;;;;;;;11.64;100.00;101630.00;1746249;80;21103;-82
2021/11/06 05:56:15;;;;;;;85.45;46.83;;;;;;;11.71;100.00;101633.52;1773730;79;21123;-82
2021/11/06 05:58:43;;;;;;;82.78;44.42;;;;;;;11.71;100.00;101632.20;1776972;80;21582;-82
2021/11/06 06:01:11;;;;;;;80.75;44.40;;;;;;;11.67;100.00;101638.91;1776931;80;21077;-81
2021/11/06 06:03:38;;;;;;;79.20;45.60;;;;;;;11.68;100.00;101648.42;1776831;80;21065;-81
2021/11/06 06:06:08;;;;;;;81.32;45.12;;;;;;;11.73;100.00;101651.22;1776805;80;21017;-81
2021/11/06 06:08:38;;;;;;;76.22;45.98;;;;;;;11.80;100.00;101662.94;1776998;80;21130;-82
2021/11/06 06:24:29;;;;;;;110.78;59.93;;;;;;;12.16;100.00;101690.23;1820915;78;22003;-81
2021/11/06 06:26:56;;;;;;;104.50;55.98;;;;;;;12.17;100.00;101697.14;1783296;80;20974;-81
2021/11/06 06:29:24;;;;;;;113.52;56.98;;;;;;;12.13;100.00;101698.29;1782671;80;21878;-81
2021/11/06 06:31:51;;;;;;;112.05;57.60;;;;;;;12.10;100.00;101700.61;1782941;80;21092;-81
2021/11/06 06:34:18;;;;;;;107.20;54.80;;;;;;;12.11;100.00;101701.46;1783126;80;21471;-82
2021/11/06 06:36:45;;;;;;;110.63;56.92;;;;;;;12.09;100.00;101695.05;1783488;80;21725;-80
2021/11/06 06:39:12;;;;;;;110.55;56.13;;;;;;;12.11;100.00;101700.16;1783293;79;21004;-80
2021/11/06 06:41:40;;;;;;;111.50;55.75;;;;;;;12.12;100.00;101700.53;1761510;80;21029;-81
2021/11/06 06:44:07;;;;;;;107.92;55.52;;;;;;;12.12;100.00;101702.66;1783150;79;21071;-80
2021/11/06 06:46:34;;;;;;;103.22;54.33;;;;;;;12.17;100.00;101701.53;1761154;79;21042;-80
2021/11/06 06:49:01;;;;;;;107.00;53.92;;;;;;;12.18;100.00;101711.87;1793936;79;21034;-81
2021/11/06 06:51:28;;;;;;;98.00;53.20;;;;;;;12.22;100.00;101714.64;1747479;80;21787;-80
2021/11/06 06:53:55;;;;;;;104.05;53.87;;;;;;;12.26;100.00;101714.83;1752318;80;21625;-80
2021/11/06 06:56:22;;;;;;;97.42;53.05;;;;;;;12.30;100.00;101716.29;1758660;80;21029;-81
2021/11/06 06:58:49;;;;;;;90.03;51.10;;;;;;;12.33;100.00;101713.97;1783378;79;21037;-81
2021/11/06 07:01:16;;;;;;;111.90;50.55;;;;;;;12.37;100.00;101721.14;1782586;79;21013;-80
2021/11/06 07:03:43;;;;;;;128.07;53.60;;;;;;;12.38;100.00;101715.80;1752374;80;21120;-81
2021/11/06 07:06:10;;;;;;;112.05;51.75;;;;;;;12.40;100.00;101727.00;1752170;81;21843;-81
2021/11/06 07:08:37;;;;;;;117.97;51.28;;;;;;;12.39;100.00;101711.41;1752060;81;21085;-81
2021/11/06 07:11:04;;;;;;;90.67;49.42;;;;;;;12.39;100.00;101712.26;1777798;79;21037;-81
2021/11/06 07:13:34;;;;;;;76.75;47.27;;;;;;;12.43;100.00;101706.36;1760629;79;22124;-81
2021/11/06 07:16:02;;;;;;;72.10;42.88;;;;;;;12.49;100.00;101703.83;1757144;80;21065;-82
2021/11/06 07:18:29;;;;;;;64.67;42.10;;;;;;;12.53;100.00;101699.60;1783105;79;21543;-82
2021/11/06 07:20:56;;;;;;;73.40;38.98;;;;;;;12.56;100.00;101701.17;1761028;79;21072;-82
2021/11/06 07:23:23;;;;;;;64.70;36.93;;;;;;;12.58;100.00;101688.37;1784543;79;21061;-82
2021/11/06 07:25:50;;;;;;;54.45;35.13;;;;;;;12.63;100.00;101679.73;1786542;78;21563;-81
2021/11/06 07:28:18;;;;;;;65.87;37.53;;;;;;;12.68;100.00;101665.55;1786661;78;21054;-82
2021/11/06 07:30:45;;;;;;;55.30;35.25;;;;;;;12.72;100.00;101670.91;1760953;79;21630;-82
2021/11/06 07:33:13;;;;;;;58.68;33.35;;;;;;;12.80;100.00;101663.87;1785363;79;21555;-84
2021/11/06 07:35:40;;;;;;;51.85;35.35;;;;;;;12.83;100.00;101659.73;1781608;79;21053;-81
2021/11/06 07:38:07;;;;;;;52.55;34.33;;;;;;;12.84;100.00;101646.58;1785948;78;21550;-81
2021/11/06 07:40:34;;;;;;;56.53;34.70;;;;;;;12.85;100.00;101649.56;1786301;79;21293;-81
2021/11/06 07:43:02;;;;;;;49.18;32.38;;;;;;;12.88;100.00;101641.48;1740675;79;21126;-81
2021/11/06 07:45:30;;;;;;;49.93;31.12;;;;;;;12.90;100.00;101637.45;1786208;80;21081;-81
2021/11/06 07:47:57;;;;;;;46.48;29.32;;;;;;;12.85;100.00;101628.65;1785990;80;21073;-81
2021/11/06 07:50:24;;;;;;;46.15;28.83;;;;;;;12.85;100.00;101627.34;1786517;79;21488;-81
2021/11/06 07:52:52;;;;;;;43.17;27.17;;;;;;;12.89;100.00;101627.97;1786111;79;20986;-82
2021/11/06 07:55:19;;;;;;;43.30;26.55;;;;;;;12.90;100.00;101634.38;1785437;78;21144;-83
2021/11/06 07:57:46;;;;;;;40.35;26.50;;;;;;;12.90;100.00;101631.77;1786008;78;21025;-81
2021/11/06 08:00:18;;;;;;;41.18;24.75;;;;;;;12.91;100.00;101632.14;1786617;78;21081;-82
2021/11/06 08:02:46;;;;;;;37.25;24.75;;;;;;;12.90;100.00;101631.77;1786131;80;21559;-81
2021/11/06 08:05:17;;;;;;;41.77;24.18;;;;;;;12.92;100.00;101634.27;1786390;80;21065;-81
2021/11/06 08:07:44;;;;;;;32.80;22.32;;;;;;;12.93;100.00;101638.11;1765964;80;21896;-82
2021/11/06 08:10:12;;;;;;;30.23;21.40;;;;;;;12.94;100.00;101625.86;1785885;79;21017;-81
2021/11/06 08:12:42;;;;;;;29.92;22.00;;;;;;;12.96;100.00;101634.44;1786005;78;21037;-81
2021/11/06 08:15:12;;;;;;;30.68;22.30;;;;;;;12.98;100.00;101640.86;1786565;79;21136;-82
2021/11/06 08:17:40;;;;;;;28.70;20.57;;;;;;;12.99;100.00;101643.84;1786308;79;21507;-82
2021/11/06 08:20:08;;;;;;;27.77;20.95;;;;;;;13.00;100.00;101644.22;1786445;79;21180;-81
2021/11/06 08:22:36;;;;;;;26.15;20.45;;;;;;;13.01;100.00;101643.27;1786232;79;21089;-81
2021/11/06 08:25:06;;;;;;;30.02;21.93;;;;;;;13.03;100.00;101640.91;1772268;79;20991;-83
2021/11/06 08:27:34;;;;;;;31.52;20.72;;;;;;;13.05;100.00;101642.11;1771956;79;21042;-81
2021/11/06 08:30:03;;;;;;;31.50;22.73;;;;;;;13.06;100.00;101641.16;1772236;79;20979;-81
2021/11/06 08:32:31;;;;;;;30.57;23.85;;;;;;;13.10;100.00;101640.00;1772214;79;22002;-81
2021/11/06 08:34:58;;;;;;;30.45;23.73;;;;;;;13.15;100.00;101643.60;1771663;79;21026;-82
2021/11/06 08:37:25;;;;;;;32.33;24.25;;;;;;;13.21;100.00;101644.02;1772105;79;21018;-82
2021/11/06 08:39:52;;;;;;;36.40;25.35;;;;;;;13.30;100.00;101640.39;1784935;79;20979;-81
2021/11/06 08:42:19;;;;;;;35.88;27.48;;;;;;;13.39;100.00;101637.16;1772244;79;21367;-81
2021/11/06 08:44:47;;;;;;;34.75;27.58;;;;;;;13.43;100.00;101642.52;1784665;79;21115;-82
2021/11/06 08:47:15;;;;;;;51.55;39.05;;;;;;;13.46;100.00;101650.66;1772054;79;21051;-82
2021/11/06 08:49:43;;;;;;;57.50;43.58;;;;;;;13.42;100.00;101651.31;1784771;79;21015;-81
2021/11/06 08:52:11;;;;;;;54.08;42.95;;;;;;;13.40;100.00;101654.05;1734684;81;21651;-81
2021/11/06 08:54:39;;;;;;;68.02;51.63;;;;;;;13.41;100.00;101643.13;1772071;79;21579;-81
2021/11/06 08:57:06;;;;;;;66.28;52.78;;;;;;;13.39;100.00;101643.22;1772368;79;21172;-81
2021/11/06 08:59:33;;;;;;;63.38;49.30;;;;;;;13.37;100.00;101642.94;1772085;79;21112;-82
2021/11/06 09:02:00;;;;;;;57.40;47.35;;;;;;;13.34;100.00;101649.71;1771309;79;21059;-82
2021/11/06 09:04:28;;;;;;;66.75;47.90;;;;;;;13.28;100.00;101644.89;1772025;81;20979;-82
2021/11/06 09:06:57;;;;;;;61.50;48.00;;;;;;;13.29;100.00;101650.48;1752952;80;21070;-82
2021/11/06 09:09:24;;;;;;;60.48;45.50;;;;;;;13.34;100.00;101644.48;1741451;81;21909;-83
2021/11/06 09:11:53;;;;;;;57.60;42.27;;;;;;;13.39;100.00;101642.39;1770700;78;20999;-83
2021/11/06 09:14:22;;;;;;;64.53;46.37;;;;;;;13.44;100.00;101645.51;1741395;81;21594;-83
2021/11/06 09:16:49;;;;;;;62.40;44.53;;;;;;;13.45;100.00;101639.34;1744400;79;21046;-83
2021/11/06 09:19:17;;;;;;;63.10;45.10;;;;;;;13.48;100.00;101637.83;1788732;79;21696;-83
2021/11/06 09:21:44;;;;;;;63.52;43.95;;;;;;;13.53;100.00;101634.88;1741669;81;21120;-83
2021/11/06 09:24:14;;;;;;;60.58;44.05;;;;;;;13.52;100.00;101628.80;1741294;80;20971;-83
2021/11/06 09:26:43;;;;;;;60.73;42.38;;;;;;;13.56;100.00;101634.64;1750005;79;21069;-82
2021/11/06 09:29:11;;;;;;;60.63;40.83;;;;;;;13.63;100.00;101637.66;1771583;79;21532;-83
2021/11/06 09:31:40;;;;;;;52.03;38.33;;;;;;;13.63;100.00;101641.10;1771695;79;21552;-84
2021/11/06 09:34:08;;;;;;;54.50;38.40;;;;;;;13.56;100.00;101639.87;1758424;81;21128;-84
2021/11/06 09:36:38;;;;;;;67.95;38.75;;;;;;;13.49;100.00;101638.19;1757764;79;21567;-83
2021/11/06 09:39:08;;;;;;;52.40;36.60;;;;;;;13.46;100.00;101637.09;1771903;79;21074;-83
2021/11/06 09:41:35;;;;;;;50.03;33.13;;;;;;;13.45;100.00;101635.41;1771710;79;21429;-83
2021/11/06 09:44:04;;;;;;;51.58;34.45;;;;;;;13.41;100.00;101638.72;1771850;79;21093;-83
2021/11/06 09:46:31;;;;;;;45.45;32.45;;;;;;;13.36;100.00;101635.58;1771985;79;21125;-84
2021/11/06 09:48:59;;;;;;;42.25;29.48;;;;;;;13.35;100.00;101636.97;1758031;81;21066;-83
2021/11/06 09:51:26;;;;;;;37.30;28.30;;;;;;;13.34;100.00;101640.07;1771542;79;21062;-84
2021/11/06 09:53:54;;;;;;;37.83;30.08;;;;;;;13.34;100.00;101641.38;1771028;79;21116;-84
2021/11/06 09:56:26;;;;;;;39.33;30.32;;;;;;;13.34;100.00;101646.61;1758907;79;21085;-84
2021/11/06 09:58:56;;;;;;;;;;;;;;;13.31;100.00;101653.35;1739915;80;22055;-83
2021/11/06 10:01:24;;;;;;;46.95;32.95;;;;;;;13.30;100.00;101646.93;1739123;81;20180;-83
2021/11/06 10:03:52;;;;;;;42.38;31.37;;;;;;;13.24;100.00;101642.51;1740458;81;21582;-84
2021/11/06 10:06:23;;;;;;;47.30;32.13;;;;;;;13.16;100.00;101640.05;1740606;81;21049;-84
2021/11/06 10:08:52;;;;;;;45.65;31.55;;;;;;;13.10;100.00;101644.77;1740736;82;21046;-83
2021/11/06 10:11:28;;;;;;;44.75;31.90;;;;;;;13.04;100.00;101654.36;1740524;81;22080;-84
2021/11/06 10:14:04;;;;;;;46.95;33.83;;;;;;;12.97;100.00;101657.03;1739114;81;21097;-83
2021/11/06 10:16:39;;;;;;;48.13;33.25;;;;;;;12.87;100.00;101652.88;1754930;80;20995;-83
2021/11/06 10:19:45;;;;;;;43.58;31.73;;;;;;;12.79;100.00;101648.65;1767964;79;21030;-84
2021/11/06 10:22:17;;;;;;;52.83;35.15;;;;;;;12.75;100.00;101644.58;1757639;79;21602;-84
2021/11/06 10:24:56;;;;;;;48.23;33.88;;;;;;;12.69;100.00;101641.09;1727338;80;21155;-83
2021/11/06 10:27:27;;;;;;;50.67;34.92;;;;;;;12.68;100.00;101642.84;1748654;80;20995;-83
2021/11/06 10:30:19;;;;;;;53.98;37.20;;;;;;;12.66;100.00;101642.11;1783440;78;21375;-84
2021/11/06 10:33:09;;;;;;;52.75;36.38;;;;;;;12.65;100.00;101632.63;1749859;80;20987;-84
2021/11/06 10:35:43;;;;;;;51.40;36.68;;;;;;;12.63;100.00;101627.96;1779939;79;21022;-84
2021/11/06 10:38:15;;;;;;;54.73;37.33;;;;;;;12.59;100.00;101623.87;1779218;79;21068;-84
2021/11/06 10:40:55;;;;;;;66.95;38.20;;;;;;;12.56;100.00;101627.53;1767007;79;21081;-83
2021/11/06 10:43:24;;;;;;;55.67;36.15;;;;;;;12.58;100.00;101620.44;1768390;79;21025;-85
2021/11/06 10:45:58;;;;;;;66.30;38.15;;;;;;;12.57;100.00;101614.84;1768339;79;21097;-84
2021/11/06 10:48:31;;;;;;;58.85;38.95;;;;;;;12.56;100.00;101618.88;1741848;79;22065;-84
2021/11/06 10:51:07;;;;;;;58.30;37.40;;;;;;;12.57;100.00;101625.29;1768458;79;21143;-85
2021/11/06 10:53:51;;;;;;;53.42;37.88;;;;;;;12.57;100.00;101619.24;1700430;82;21071;-85
2021/11/06 10:56:41;;;;;;;46.75;34.75;;;;;;;12.58;100.00;101611.29;1775043;79;21109;-85
2021/11/06 10:59:15;;;;;;;51.35;36.05;;;;;;;12.58;100.00;101615.20;1763715;79;21103;-86
2021/11/06 11:01:46;;;;;;;48.73;34.67;;;;;;;12.57;100.00;101617.45;1766662;79;21559;-86
2021/11/06 11:04:18;;;;;;;43.63;32.23;;;;;;;12.51;100.00;101612.64;1756745;80;21709;-86
2021/11/06 11:06:56;;;;;;;41.45;31.65;;;;;;;12.44;100.00;101623.14;1784273;78;21006;-85
2021/11/06 11:09:29;;;;;;;38.42;28.00;;;;;;;12.37;100.00;101623.19;1767930;79;21057;-85
2021/11/06 11:12:00;;;;;;;28.65;21.35;;;;;;;12.26;100.00;101618.66;1717800;80;21104;-86
2021/11/06 11:14:32;;;;;;;27.58;20.62;;;;;;;12.15;100.00;101616.76;1768339;79;21522;-88
2021/11/06 11:17:05;;;;;;;28.25;20.50;;;;;;;12.08;100.00;101611.58;1769034;79;21142;-86
2021/11/06 11:19:44;;;;;;;32.63;23.10;;;;;;;12.05;100.00;101617.02;1768361;79;21068;-87
2021/11/06 11:22:31;;;;;;;26.55;19.20;;;;;;;12.03;100.00;101614.48;1771457;79;21761;-87